sensor_id;sensor_type;location;lat;lon;timestamp;P1;durP1;ratioP1;P2;durP2;ratioP2
4278;SDS011;2153;47.744;10.580;2024-01-15T00:02:06;11.10;;;1.73;;
4278;SDS011;2153;47.744;10.580;2024-01-15T00:04:35;10.50;;;2.40;;
4278;SDS011;2153;47.744;10.580;2024-01-15T00:07:03;13.03;;;2.50;;
4278;SDS011;2153;47.744;10.580;2024-01-15T00:09:29;10.37;;;2.00;;
4278;SDS011;2153;47.744;10.580;2024-01-15T00:11:56;9.60;;;1.87;;
4278;SDS011;2153;47.744;10.580;2024-01-15T00:14:23;10.50;;;2.30;;
4278;SDS011;2153;47.744;10.580;2024-01-15T00:16:49;10.00;;;2.10;;
4278;SDS011;2153;47.744;10.580;2024-01-15T00:19:18;11.73;;;2.30;;
4278;SDS011;2153;47.744;10.580;2024-01-15T00:21:44;10.90;;;2.60;;
4278;SDS011;2153;47.744;10.580;2024-01-15T00:24:11;11.10;;;2.50;;
4278;SDS011;2153;47.744;10.580;2024-01-15T00:26:38;10.30;;;2.40;;
4278;SDS011;2153;47.744;10.580;2024-01-15T00:29:06;11.20;;;2.67;;
4278;SDS011;2153;47.744;10.580;2024-01-15T00:31:33;10.83;;;2.93;;
4278;SDS011;2153;47.744;10.580;2024-01-15T00:33:59;9.87;;;2.03;;
4278;SDS011;2153;47.744;10.580;2024-01-15T00:36:27;12.60;;;2.10;;
4278;SDS011;2153;47.744;10.580;2024-01-15T00:38:54;12.67;;;2.63;;
4278;SDS011;2153;47.744;10.580;2024-01-15T00:41:21;11.40;;;2.07;;
4278;SDS011;2153;47.744;10.580;2024-01-15T00:43:47;9.90;;;1.90;;
4278;SDS011;2153;47.744;10.580;2024-01-15T00:46:15;10.60;;;2.30;;
4278;SDS011;2153;47.744;10.580;2024-01-15T00:48:42;12.10;;;2.27;;
4278;SDS011;2153;47.744;10.580;2024-01-15T00:51:09;10.23;;;1.97;;
4278;SDS011;2153;47.744;10.580;2024-01-15T00:53:36;9.83;;;1.90;;
4278;SDS011;2153;47.744;10.580;2024-01-15T00:56:03;10.40;;;2.10;;
4278;SDS011;2153;47.744;10.580;2024-01-15T00:58:30;10.20;;;2.27;;
4278;SDS011;2153;47.744;10.580;2024-01-15T01:00:57;12.30;;;2.27;;
4278;SDS011;2153;47.744;10.580;2024-01-15T01:03:23;10.93;;;2.20;;
4278;SDS011;2153;47.744;10.580;2024-01-15T01:05:50;12.97;;;2.40;;
4278;SDS011;2153;47.744;10.580;2024-01-15T01:08:17;14.87;;;2.70;;
4278;SDS011;2153;47.744;10.580;2024-01-15T01:10:45;11.20;;;2.80;;
4278;SDS011;2153;47.744;10.580;2024-01-15T01:13:11;11.50;;;2.30;;
4278;SDS011;2153;47.744;10.580;2024-01-15T01:15:38;11.87;;;3.10;;
4278;SDS011;2153;47.744;10.580;2024-01-15T01:18:05;10.97;;;2.50;;
4278;SDS011;2153;47.744;10.580;2024-01-15T01:20:31;10.50;;;2.70;;
4278;SDS011;2153;47.744;10.580;2024-01-15T01:22:58;12.30;;;3.27;;
4278;SDS011;2153;47.744;10.580;2024-01-15T01:25:26;12.73;;;3.73;;
4278;SDS011;2153;47.744;10.580;2024-01-15T01:27:54;12.20;;;3.40;;
4278;SDS011;2153;47.744;10.580;2024-01-15T01:30:21;11.20;;;3.40;;
4278;SDS011;2153;47.744;10.580;2024-01-15T01:32:47;14.27;;;4.40;;
4278;SDS011;2153;47.744;10.580;2024-01-15T01:35:14;14.80;;;4.60;;
4278;SDS011;2153;47.744;10.580;2024-01-15T01:37:41;13.30;;;4.37;;
4278;SDS011;2153;47.744;10.580;2024-01-15T01:40:08;16.63;;;5.33;;
4278;SDS011;2153;47.744;10.580;2024-01-15T01:42:35;18.40;;;5.30;;
4278;SDS011;2153;47.744;10.580;2024-01-15T01:45:03;12.60;;;3.90;;
4278;SDS011;2153;47.744;10.580;2024-01-15T01:47:31;19.30;;;5.73;;
4278;SDS011;2153;47.744;10.580;2024-01-15T01:49:58;17.43;;;5.17;;
4278;SDS011;2153;47.744;10.580;2024-01-15T01:52:24;15.30;;;5.10;;
4278;SDS011;2153;47.744;10.580;2024-01-15T01:54:51;15.13;;;4.20;;
4278;SDS011;2153;47.744;10.580;2024-01-15T01:57:18;15.30;;;4.23;;
4278;SDS011;2153;47.744;10.580;2024-01-15T01:59:45;14.60;;;4.63;;
4278;SDS011;2153;47.744;10.580;2024-01-15T02:02:14;15.30;;;4.33;;
4278;SDS011;2153;47.744;10.580;2024-01-15T02:04:42;16.27;;;4.87;;
4278;SDS011;2153;47.744;10.580;2024-01-15T02:07:10;16.20;;;4.90;;
4278;SDS011;2153;47.744;10.580;2024-01-15T02:09:37;17.03;;;5.30;;
4278;SDS011;2153;47.744;10.580;2024-01-15T02:12:04;19.63;;;5.97;;
4278;SDS011;2153;47.744;10.580;2024-01-15T02:14:31;17.00;;;4.73;;
4278;SDS011;2153;47.744;10.580;2024-01-15T02:16:58;16.47;;;4.83;;
4278;SDS011;2153;47.744;10.580;2024-01-15T02:19:26;16.20;;;5.57;;
4278;SDS011;2153;47.744;10.580;2024-01-15T02:21:53;19.53;;;6.27;;
4278;SDS011;2153;47.744;10.580;2024-01-15T02:24:21;15.80;;;5.00;;
4278;SDS011;2153;47.744;10.580;2024-01-15T02:26:47;17.80;;;5.80;;
4278;SDS011;2153;47.744;10.580;2024-01-15T02:29:14;15.57;;;5.37;;
4278;SDS011;2153;47.744;10.580;2024-01-15T02:31:41;14.60;;;5.30;;
4278;SDS011;2153;47.744;10.580;2024-01-15T02:34:08;15.30;;;5.23;;
4278;SDS011;2153;47.744;10.580;2024-01-15T02:36:34;16.67;;;5.37;;
4278;SDS011;2153;47.744;10.580;2024-01-15T02:39:01;14.93;;;4.60;;
4278;SDS011;2153;47.744;10.580;2024-01-15T02:41:29;15.97;;;5.67;;
4278;SDS011;2153;47.744;10.580;2024-01-15T02:43:56;20.00;;;6.00;;
4278;SDS011;2153;47.744;10.580;2024-01-15T02:46:23;16.70;;;5.30;;
4278;SDS011;2153;47.744;10.580;2024-01-15T02:48:49;16.67;;;5.33;;
4278;SDS011;2153;47.744;10.580;2024-01-15T02:51:16;15.93;;;4.80;;
4278;SDS011;2153;47.744;10.580;2024-01-15T02:53:43;15.17;;;5.17;;
4278;SDS011;2153;47.744;10.580;2024-01-15T02:56:11;16.10;;;5.77;;
4278;SDS011;2153;47.744;10.580;2024-01-15T02:58:39;19.10;;;5.47;;
4278;SDS011;2153;47.744;10.580;2024-01-15T03:01:05;16.53;;;5.80;;
4278;SDS011;2153;47.744;10.580;2024-01-15T03:03:32;17.70;;;6.10;;
4278;SDS011;2153;47.744;10.580;2024-01-15T03:05:58;15.80;;;5.17;;
4278;SDS011;2153;47.744;10.580;2024-01-15T03:08:25;21.57;;;6.63;;
4278;SDS011;2153;47.744;10.580;2024-01-15T03:10:54;19.23;;;7.23;;
4278;SDS011;2153;47.744;10.580;2024-01-15T03:13:20;17.17;;;6.37;;
4278;SDS011;2153;47.744;10.580;2024-01-15T03:15:48;25.20;;;7.40;;
4278;SDS011;2153;47.744;10.580;2024-01-15T03:18:15;18.40;;;6.53;;
4278;SDS011;2153;47.744;10.580;2024-01-15T03:20:42;18.80;;;6.57;;
4278;SDS011;2153;47.744;10.580;2024-01-15T03:23:08;26.90;;;7.93;;
4278;SDS011;2153;47.744;10.580;2024-01-15T03:25:35;20.17;;;6.37;;
4278;SDS011;2153;47.744;10.580;2024-01-15T03:28:02;20.47;;;7.00;;
4278;SDS011;2153;47.744;10.580;2024-01-15T03:30:29;19.30;;;7.37;;
4278;SDS011;2153;47.744;10.580;2024-01-15T03:32:57;18.90;;;6.53;;
4278;SDS011;2153;47.744;10.580;2024-01-15T03:35:23;19.63;;;6.30;;
4278;SDS011;2153;47.744;10.580;2024-01-15T03:37:54;17.40;;;6.50;;
4278;SDS011;2153;47.744;10.580;2024-01-15T03:40:20;20.07;;;7.20;;
4278;SDS011;2153;47.744;10.580;2024-01-15T03:42:47;19.90;;;7.03;;
4278;SDS011;2153;47.744;10.580;2024-01-15T03:45:14;18.93;;;7.13;;
4278;SDS011;2153;47.744;10.580;2024-01-15T03:47:40;21.53;;;7.10;;
4278;SDS011;2153;47.744;10.580;2024-01-15T03:50:09;19.57;;;6.10;;
4278;SDS011;2153;47.744;10.580;2024-01-15T03:52:36;19.97;;;6.40;;
4278;SDS011;2153;47.744;10.580;2024-01-15T03:55:03;20.37;;;6.03;;
4278;SDS011;2153;47.744;10.580;2024-01-15T03:57:31;17.77;;;6.07;;
4278;SDS011;2153;47.744;10.580;2024-01-15T03:59:57;16.47;;;5.43;;
4278;SDS011;2153;47.744;10.580;2024-01-15T04:02:24;20.40;;;6.37;;
4278;SDS011;2153;47.744;10.580;2024-01-15T04:04:50;20.60;;;6.30;;
4278;SDS011;2153;47.744;10.580;2024-01-15T04:07:19;18.70;;;6.57;;
4278;SDS011;2153;47.744;10.580;2024-01-15T04:09:46;18.80;;;6.50;;
4278;SDS011;2153;47.744;10.580;2024-01-15T04:12:12;17.30;;;5.63;;
4278;SDS011;2153;47.744;10.580;2024-01-15T04:14:39;17.30;;;5.87;;
4278;SDS011;2153;47.744;10.580;2024-01-15T04:17:05;17.10;;;5.63;;
4278;SDS011;2153;47.744;10.580;2024-01-15T04:19:32;15.57;;;5.63;;
4278;SDS011;2153;47.744;10.580;2024-01-15T04:21:59;19.70;;;6.17;;
4278;SDS011;2153;47.744;10.580;2024-01-15T04:24:27;17.43;;;5.40;;
4278;SDS011;2153;47.744;10.580;2024-01-15T04:26:53;17.80;;;5.93;;
4278;SDS011;2153;47.744;10.580;2024-01-15T04:29:20;18.17;;;6.20;;
4278;SDS011;2153;47.744;10.580;2024-01-15T04:31:47;18.40;;;5.70;;
4278;SDS011;2153;47.744;10.580;2024-01-15T04:34:13;21.10;;;5.03;;
4278;SDS011;2153;47.744;10.580;2024-01-15T04:36:40;16.43;;;5.77;;
4278;SDS011;2153;47.744;10.580;2024-01-15T04:39:07;17.47;;;4.80;;
4278;SDS011;2153;47.744;10.580;2024-01-15T04:41:35;19.00;;;5.00;;
4278;SDS011;2153;47.744;10.580;2024-01-15T04:44:01;17.50;;;5.23;;
4278;SDS011;2153;47.744;10.580;2024-01-15T04:46:28;16.13;;;5.73;;
4278;SDS011;2153;47.744;10.580;2024-01-15T04:48:55;15.87;;;4.90;;
4278;SDS011;2153;47.744;10.580;2024-01-15T04:51:22;13.83;;;4.47;;
4278;SDS011;2153;47.744;10.580;2024-01-15T04:53:48;16.20;;;5.37;;
4278;SDS011;2153;47.744;10.580;2024-01-15T04:56:15;16.47;;;4.70;;
4278;SDS011;2153;47.744;10.580;2024-01-15T04:58:43;17.70;;;5.33;;
4278;SDS011;2153;47.744;10.580;2024-01-15T05:01:09;14.00;;;4.70;;
4278;SDS011;2153;47.744;10.580;2024-01-15T05:03:36;16.33;;;5.10;;
4278;SDS011;2153;47.744;10.580;2024-01-15T05:06:03;16.37;;;5.23;;
4278;SDS011;2153;47.744;10.580;2024-01-15T05:08:30;15.37;;;5.30;;
4278;SDS011;2153;47.744;10.580;2024-01-15T05:10:57;14.23;;;4.30;;
4278;SDS011;2153;47.744;10.580;2024-01-15T05:13:24;17.93;;;5.43;;
4278;SDS011;2153;47.744;10.580;2024-01-15T05:15:52;14.53;;;4.40;;
4278;SDS011;2153;47.744;10.580;2024-01-15T05:18:18;15.80;;;5.47;;
4278;SDS011;2153;47.744;10.580;2024-01-15T05:20:44;19.33;;;5.60;;
4278;SDS011;2153;47.744;10.580;2024-01-15T05:23:11;20.53;;;6.80;;
4278;SDS011;2153;47.744;10.580;2024-01-15T05:25:37;15.50;;;4.57;;
4278;SDS011;2153;47.744;10.580;2024-01-15T05:28:04;15.00;;;4.50;;
4278;SDS011;2153;47.744;10.580;2024-01-15T05:30:31;17.47;;;5.20;;
4278;SDS011;2153;47.744;10.580;2024-01-15T05:32:59;18.97;;;4.60;;
4278;SDS011;2153;47.744;10.580;2024-01-15T05:35:27;13.33;;;4.10;;
4278;SDS011;2153;47.744;10.580;2024-01-15T05:37:54;15.17;;;4.33;;
4278;SDS011;2153;47.744;10.580;2024-01-15T05:40:21;15.07;;;4.73;;
4278;SDS011;2153;47.744;10.580;2024-01-15T05:42:47;13.27;;;4.07;;
4278;SDS011;2153;47.744;10.580;2024-01-15T05:45:14;16.23;;;5.00;;
4278;SDS011;2153;47.744;10.580;2024-01-15T05:47:41;14.27;;;5.03;;
4278;SDS011;2153;47.744;10.580;2024-01-15T05:50:10;14.60;;;4.37;;
4278;SDS011;2153;47.744;10.580;2024-01-15T05:52:37;16.77;;;5.43;;
4278;SDS011;2153;47.744;10.580;2024-01-15T05:55:04;13.97;;;4.13;;
4278;SDS011;2153;47.744;10.580;2024-01-15T05:57:31;14.67;;;4.73;;
4278;SDS011;2153;47.744;10.580;2024-01-15T05:59:57;14.13;;;3.83;;
4278;SDS011;2153;47.744;10.580;2024-01-15T06:02:26;16.53;;;5.27;;
4278;SDS011;2153;47.744;10.580;2024-01-15T06:04:52;16.33;;;4.70;;
4278;SDS011;2153;47.744;10.580;2024-01-15T06:07:20;15.93;;;4.67;;
4278;SDS011;2153;47.744;10.580;2024-01-15T06:09:47;14.97;;;5.07;;
4278;SDS011;2153;47.744;10.580;2024-01-15T06:12:14;16.70;;;5.43;;
4278;SDS011;2153;47.744;10.580;2024-01-15T06:14:41;19.47;;;5.97;;
4278;SDS011;2153;47.744;10.580;2024-01-15T06:17:07;19.70;;;6.30;;
4278;SDS011;2153;47.744;10.580;2024-01-15T06:19:34;16.47;;;5.60;;
4278;SDS011;2153;47.744;10.580;2024-01-15T06:22:00;17.10;;;5.70;;
4278;SDS011;2153;47.744;10.580;2024-01-15T06:24:28;19.50;;;6.00;;
4278;SDS011;2153;47.744;10.580;2024-01-15T06:26:55;17.80;;;6.47;;
4278;SDS011;2153;47.744;10.580;2024-01-15T06:29:21;18.33;;;6.20;;
4278;SDS011;2153;47.744;10.580;2024-01-15T06:31:49;20.33;;;6.43;;
4278;SDS011;2153;47.744;10.580;2024-01-15T06:34:15;23.13;;;6.80;;
4278;SDS011;2153;47.744;10.580;2024-01-15T06:36:42;16.90;;;6.00;;
4278;SDS011;2153;47.744;10.580;2024-01-15T06:39:09;17.80;;;6.17;;
4278;SDS011;2153;47.744;10.580;2024-01-15T06:41:37;19.20;;;5.93;;
4278;SDS011;2153;47.744;10.580;2024-01-15T06:44:08;17.87;;;6.00;;
4278;SDS011;2153;47.744;10.580;2024-01-15T06:46:35;18.27;;;6.10;;
4278;SDS011;2153;47.744;10.580;2024-01-15T06:49:01;20.03;;;6.03;;
4278;SDS011;2153;47.744;10.580;2024-01-15T06:51:28;27.03;;;5.87;;
4278;SDS011;2153;47.744;10.580;2024-01-15T06:53:55;17.40;;;5.27;;
4278;SDS011;2153;47.744;10.580;2024-01-15T06:56:22;16.47;;;6.17;;
4278;SDS011;2153;47.744;10.580;2024-01-15T06:58:50;17.60;;;5.90;;
4278;SDS011;2153;47.744;10.580;2024-01-15T07:01:16;22.13;;;6.47;;
4278;SDS011;2153;47.744;10.580;2024-01-15T07:03:43;18.67;;;6.00;;
4278;SDS011;2153;47.744;10.580;2024-01-15T07:06:10;19.93;;;6.50;;
4278;SDS011;2153;47.744;10.580;2024-01-15T07:08:37;21.30;;;7.10;;
4278;SDS011;2153;47.744;10.580;2024-01-15T07:11:04;24.63;;;8.90;;
4278;SDS011;2153;47.744;10.580;2024-01-15T07:13:31;22.30;;;8.20;;
4278;SDS011;2153;47.744;10.580;2024-01-15T07:15:59;21.97;;;7.00;;
4278;SDS011;2153;47.744;10.580;2024-01-15T07:18:25;19.30;;;6.80;;
4278;SDS011;2153;47.744;10.580;2024-01-15T07:20:52;19.47;;;6.47;;
4278;SDS011;2153;47.744;10.580;2024-01-15T07:23:19;18.60;;;6.70;;
4278;SDS011;2153;47.744;10.580;2024-01-15T07:25:45;19.50;;;5.70;;
4278;SDS011;2153;47.744;10.580;2024-01-15T07:28:12;21.33;;;7.50;;
4278;SDS011;2153;47.744;10.580;2024-01-15T07:30:39;19.03;;;6.40;;
4278;SDS011;2153;47.744;10.580;2024-01-15T07:33:07;18.13;;;6.10;;
4278;SDS011;2153;47.744;10.580;2024-01-15T07:35:34;22.23;;;7.53;;
4278;SDS011;2153;47.744;10.580;2024-01-15T07:38:00;17.03;;;5.93;;
4278;SDS011;2153;47.744;10.580;2024-01-15T07:40:27;16.63;;;5.70;;
4278;SDS011;2153;47.744;10.580;2024-01-15T07:42:54;16.30;;;5.67;;
4278;SDS011;2153;47.744;10.580;2024-01-15T07:45:20;21.17;;;6.10;;
4278;SDS011;2153;47.744;10.580;2024-01-15T07:47:47;22.10;;;6.83;;
4278;SDS011;2153;47.744;10.580;2024-01-15T07:50:15;17.97;;;5.70;;
4278;SDS011;2153;47.744;10.580;2024-01-15T07:52:42;16.53;;;5.73;;
4278;SDS011;2153;47.744;10.580;2024-01-15T07:55:08;15.90;;;5.20;;
4278;SDS011;2153;47.744;10.580;2024-01-15T07:57:35;19.43;;;5.93;;
4278;SDS011;2153;47.744;10.580;2024-01-15T08:00:02;16.80;;;5.20;;
4278;SDS011;2153;47.744;10.580;2024-01-15T08:02:30;15.00;;;4.70;;
4278;SDS011;2153;47.744;10.580;2024-01-15T08:04:57;18.57;;;5.20;;
4278;SDS011;2153;47.744;10.580;2024-01-15T08:07:25;19.57;;;6.07;;
4278;SDS011;2153;47.744;10.580;2024-01-15T08:09:52;19.10;;;5.80;;
4278;SDS011;2153;47.744;10.580;2024-01-15T08:12:19;15.47;;;5.03;;
4278;SDS011;2153;47.744;10.580;2024-01-15T08:14:47;15.07;;;4.53;;
4278;SDS011;2153;47.744;10.580;2024-01-15T08:17:13;16.50;;;5.20;;
4278;SDS011;2153;47.744;10.580;2024-01-15T08:19:41;13.17;;;4.27;;
4278;SDS011;2153;47.744;10.580;2024-01-15T08:22:08;14.30;;;5.00;;
4278;SDS011;2153;47.744;10.580;2024-01-15T08:24:36;14.53;;;4.40;;
4278;SDS011;2153;47.744;10.580;2024-01-15T08:27:03;16.73;;;4.37;;
4278;SDS011;2153;47.744;10.580;2024-01-15T08:29:30;14.70;;;4.30;;
4278;SDS011;2153;47.744;10.580;2024-01-15T08:31:58;15.03;;;3.90;;
4278;SDS011;2153;47.744;10.580;2024-01-15T08:34:24;19.53;;;6.53;;
4278;SDS011;2153;47.744;10.580;2024-01-15T08:36:51;16.77;;;4.70;;
4278;SDS011;2153;47.744;10.580;2024-01-15T08:39:18;15.40;;;4.07;;
4278;SDS011;2153;47.744;10.580;2024-01-15T08:41:46;14.00;;;3.87;;
4278;SDS011;2153;47.744;10.580;2024-01-15T08:44:13;13.80;;;4.20;;
4278;SDS011;2153;47.744;10.580;2024-01-15T08:46:39;13.27;;;3.80;;
4278;SDS011;2153;47.744;10.580;2024-01-15T08:49:06;12.80;;;4.03;;
4278;SDS011;2153;47.744;10.580;2024-01-15T08:51:33;13.20;;;3.27;;
4278;SDS011;2153;47.744;10.580;2024-01-15T08:54:00;14.33;;;4.37;;
4278;SDS011;2153;47.744;10.580;2024-01-15T08:56:26;15.80;;;4.70;;
4278;SDS011;2153;47.744;10.580;2024-01-15T08:58:54;14.50;;;4.00;;
4278;SDS011;2153;47.744;10.580;2024-01-15T09:01:21;16.63;;;5.37;;
4278;SDS011;2153;47.744;10.580;2024-01-15T09:03:48;17.77;;;4.20;;
4278;SDS011;2153;47.744;10.580;2024-01-15T09:06:15;14.53;;;4.33;;
4278;SDS011;2153;47.744;10.580;2024-01-15T09:08:41;14.40;;;5.07;;
4278;SDS011;2153;47.744;10.580;2024-01-15T09:11:08;15.77;;;4.30;;
4278;SDS011;2153;47.744;10.580;2024-01-15T09:13:34;16.70;;;4.77;;
4278;SDS011;2153;47.744;10.580;2024-01-15T09:16:03;15.33;;;3.90;;
4278;SDS011;2153;47.744;10.580;2024-01-15T09:18:30;17.17;;;5.77;;
4278;SDS011;2153;47.744;10.580;2024-01-15T09:20:56;14.50;;;3.97;;
4278;SDS011;2153;47.744;10.580;2024-01-15T09:23:23;12.83;;;3.67;;
4278;SDS011;2153;47.744;10.580;2024-01-15T09:25:50;12.50;;;3.50;;
4278;SDS011;2153;47.744;10.580;2024-01-15T09:28:17;13.37;;;3.43;;
4278;SDS011;2153;47.744;10.580;2024-01-15T09:30:44;13.83;;;3.53;;
4278;SDS011;2153;47.744;10.580;2024-01-15T09:33:13;14.37;;;4.50;;
4278;SDS011;2153;47.744;10.580;2024-01-15T09:35:40;12.70;;;3.47;;
4278;SDS011;2153;47.744;10.580;2024-01-15T09:38:06;11.53;;;2.50;;
4278;SDS011;2153;47.744;10.580;2024-01-15T09:40:33;12.27;;;3.00;;
4278;SDS011;2153;47.744;10.580;2024-01-15T09:43:03;13.30;;;3.60;;
4278;SDS011;2153;47.744;10.580;2024-01-15T09:45:30;13.57;;;3.70;;
4278;SDS011;2153;47.744;10.580;2024-01-15T09:47:57;12.90;;;3.60;;
4278;SDS011;2153;47.744;10.580;2024-01-15T09:50:25;13.00;;;3.20;;
4278;SDS011;2153;47.744;10.580;2024-01-15T09:52:52;10.77;;;2.50;;
4278;SDS011;2153;47.744;10.580;2024-01-15T09:55:22;11.40;;;3.00;;
4278;SDS011;2153;47.744;10.580;2024-01-15T09:57:49;10.90;;;2.43;;
4278;SDS011;2153;47.744;10.580;2024-01-15T10:00:17;11.73;;;2.63;;
4278;SDS011;2153;47.744;10.580;2024-01-15T10:02:44;13.57;;;3.07;;
4278;SDS011;2153;47.744;10.580;2024-01-15T10:05:11;10.40;;;2.33;;
4278;SDS011;2153;47.744;10.580;2024-01-15T10:07:39;11.80;;;3.23;;
4278;SDS011;2153;47.744;10.580;2024-01-15T10:10:06;11.77;;;2.67;;
4278;SDS011;2153;47.744;10.580;2024-01-15T10:12:33;12.47;;;2.80;;
4278;SDS011;2153;47.744;10.580;2024-01-15T10:15:01;11.10;;;2.30;;
4278;SDS011;2153;47.744;10.580;2024-01-15T10:17:29;13.10;;;2.87;;
4278;SDS011;2153;47.744;10.580;2024-01-15T10:19:56;11.20;;;3.10;;
4278;SDS011;2153;47.744;10.580;2024-01-15T10:22:22;12.70;;;2.50;;
4278;SDS011;2153;47.744;10.580;2024-01-15T10:24:51;19.53;;;5.87;;
4278;SDS011;2153;47.744;10.580;2024-01-15T10:27:17;11.00;;;2.60;;
4278;SDS011;2153;47.744;10.580;2024-01-15T10:29:44;13.27;;;3.70;;
4278;SDS011;2153;47.744;10.580;2024-01-15T10:32:11;14.70;;;4.80;;
4278;SDS011;2153;47.744;10.580;2024-01-15T10:34:38;12.83;;;3.20;;
4278;SDS011;2153;47.744;10.580;2024-01-15T10:37:06;12.40;;;3.17;;
4278;SDS011;2153;47.744;10.580;2024-01-15T10:39:34;11.33;;;2.97;;
4278;SDS011;2153;47.744;10.580;2024-01-15T10:42:02;13.77;;;2.77;;
4278;SDS011;2153;47.744;10.580;2024-01-15T10:44:29;13.50;;;3.40;;
4278;SDS011;2153;47.744;10.580;2024-01-15T10:46:56;12.10;;;3.43;;
4278;SDS011;2153;47.744;10.580;2024-01-15T10:49:23;19.33;;;3.13;;
4278;SDS011;2153;47.744;10.580;2024-01-15T10:51:52;14.77;;;3.63;;
4278;SDS011;2153;47.744;10.580;2024-01-15T10:54:19;13.10;;;2.90;;
4278;SDS011;2153;47.744;10.580;2024-01-15T10:56:48;14.00;;;3.20;;
4278;SDS011;2153;47.744;10.580;2024-01-15T10:59:17;14.23;;;3.37;;
4278;SDS011;2153;47.744;10.580;2024-01-15T11:01:46;11.13;;;3.03;;
4278;SDS011;2153;47.744;10.580;2024-01-15T11:04:13;18.83;;;3.37;;
4278;SDS011;2153;47.744;10.580;2024-01-15T11:06:43;11.93;;;2.80;;
4278;SDS011;2153;47.744;10.580;2024-01-15T11:09:11;11.97;;;2.73;;
4278;SDS011;2153;47.744;10.580;2024-01-15T11:11:40;10.60;;;2.50;;
4278;SDS011;2153;47.744;10.580;2024-01-15T11:14:08;10.73;;;2.47;;
4278;SDS011;2153;47.744;10.580;2024-01-15T11:16:54;11.40;;;2.70;;
4278;SDS011;2153;47.744;10.580;2024-01-15T11:19:24;12.10;;;2.77;;
4278;SDS011;2153;47.744;10.580;2024-01-15T11:21:51;12.70;;;2.60;;
4278;SDS011;2153;47.744;10.580;2024-01-15T11:24:33;11.37;;;2.40;;
4278;SDS011;2153;47.744;10.580;2024-01-15T11:27:02;11.83;;;2.97;;
4278;SDS011;2153;47.744;10.580;2024-01-15T11:29:29;10.70;;;2.37;;
4278;SDS011;2153;47.744;10.580;2024-01-15T11:31:59;12.23;;;3.07;;
4278;SDS011;2153;47.744;10.580;2024-01-15T11:37:24;13.20;;;2.97;;
4278;SDS011;2153;47.744;10.580;2024-01-15T11:39:52;11.47;;;2.60;;
4278;SDS011;2153;47.744;10.580;2024-01-15T11:42:20;13.90;;;3.90;;
4278;SDS011;2153;47.744;10.580;2024-01-15T11:44:47;10.87;;;2.60;;
4278;SDS011;2153;47.744;10.580;2024-01-15T11:47:16;11.93;;;2.43;;
4278;SDS011;2153;47.744;10.580;2024-01-15T11:50:06;11.50;;;3.33;;
4278;SDS011;2153;47.744;10.580;2024-01-15T11:52:34;12.50;;;3.33;;
4278;SDS011;2153;47.744;10.580;2024-01-15T11:55:06;21.70;;;7.40;;
4278;SDS011;2153;47.744;10.580;2024-01-15T11:57:40;14.63;;;4.27;;
4278;SDS011;2153;47.744;10.580;2024-01-15T12:00:09;12.43;;;2.93;;
4278;SDS011;2153;47.744;10.580;2024-01-15T12:02:38;15.13;;;3.50;;
4278;SDS011;2153;47.744;10.580;2024-01-15T12:05:06;15.07;;;3.90;;
4278;SDS011;2153;47.744;10.580;2024-01-15T12:07:33;11.57;;;3.30;;
4278;SDS011;2153;47.744;10.580;2024-01-15T12:10:00;11.93;;;3.07;;
4278;SDS011;2153;47.744;10.580;2024-01-15T12:12:29;12.90;;;3.27;;
4278;SDS011;2153;47.744;10.580;2024-01-15T12:15:03;12.57;;;3.10;;
4278;SDS011;2153;47.744;10.580;2024-01-15T12:17:31;12.07;;;3.10;;
4278;SDS011;2153;47.744;10.580;2024-01-15T12:19:59;17.03;;;2.70;;
4278;SDS011;2153;47.744;10.580;2024-01-15T12:22:25;11.97;;;3.10;;
4278;SDS011;2153;47.744;10.580;2024-01-15T12:24:53;12.50;;;2.73;;
4278;SDS011;2153;47.744;10.580;2024-01-15T12:27:19;10.93;;;2.43;;
4278;SDS011;2153;47.744;10.580;2024-01-15T12:29:47;10.90;;;2.80;;
4278;SDS011;2153;47.744;10.580;2024-01-15T12:32:13;11.00;;;2.70;;
4278;SDS011;2153;47.744;10.580;2024-01-15T12:34:40;11.00;;;3.00;;
4278;SDS011;2153;47.744;10.580;2024-01-15T12:37:08;13.37;;;3.13;;
4278;SDS011;2153;47.744;10.580;2024-01-15T12:39:36;14.33;;;3.17;;
4278;SDS011;2153;47.744;10.580;2024-01-15T12:42:03;10.47;;;2.07;;
4278;SDS011;2153;47.744;10.580;2024-01-15T12:44:30;14.27;;;3.43;;
4278;SDS011;2153;47.744;10.580;2024-01-15T12:46:57;12.93;;;2.67;;
4278;SDS011;2153;47.744;10.580;2024-01-15T12:49:24;11.57;;;3.20;;
4278;SDS011;2153;47.744;10.580;2024-01-15T12:51:52;22.40;;;7.13;;
4278;SDS011;2153;47.744;10.580;2024-01-15T12:54:20;13.27;;;3.63;;
4278;SDS011;2153;47.744;10.580;2024-01-15T12:56:48;13.97;;;3.70;;
4278;SDS011;2153;47.744;10.580;2024-01-15T12:59:15;10.03;;;2.17;;
4278;SDS011;2153;47.744;10.580;2024-01-15T13:01:42;10.40;;;2.03;;
4278;SDS011;2153;47.744;10.580;2024-01-15T13:04:09;11.10;;;2.20;;
4278;SDS011;2153;47.744;10.580;2024-01-15T13:06:36;10.23;;;1.93;;
4278;SDS011;2153;47.744;10.580;2024-01-15T13:09:03;9.50;;;2.00;;
4278;SDS011;2153;47.744;10.580;2024-01-15T13:11:32;14.40;;;2.80;;
4278;SDS011;2153;47.744;10.580;2024-01-15T13:13:58;10.57;;;2.20;;
4278;SDS011;2153;47.744;10.580;2024-01-15T13:16:25;11.80;;;2.60;;
4278;SDS011;2153;47.744;10.580;2024-01-15T13:18:54;9.20;;;1.57;;
4278;SDS011;2153;47.744;10.580;2024-01-15T13:21:20;9.60;;;1.73;;
4278;SDS011;2153;47.744;10.580;2024-01-15T13:23:47;10.33;;;1.97;;
4278;SDS011;2153;47.744;10.580;2024-01-15T13:26:14;12.90;;;3.40;;
4278;SDS011;2153;47.744;10.580;2024-01-15T13:28:44;11.50;;;2.73;;
4278;SDS011;2153;47.744;10.580;2024-01-15T13:31:11;10.90;;;2.60;;
4278;SDS011;2153;47.744;10.580;2024-01-15T13:33:38;10.30;;;2.40;;
4278;SDS011;2153;47.744;10.580;2024-01-15T13:36:05;10.53;;;2.17;;
4278;SDS011;2153;47.744;10.580;2024-01-15T13:38:33;9.77;;;1.80;;
4278;SDS011;2153;47.744;10.580;2024-01-15T13:41:01;11.60;;;2.53;;
4278;SDS011;2153;47.744;10.580;2024-01-15T13:43:28;10.70;;;2.70;;
4278;SDS011;2153;47.744;10.580;2024-01-15T13:45:56;10.27;;;2.10;;
4278;SDS011;2153;47.744;10.580;2024-01-15T13:48:23;10.33;;;2.07;;
4278;SDS011;2153;47.744;10.580;2024-01-15T13:50:49;11.97;;;2.07;;
4278;SDS011;2153;47.744;10.580;2024-01-15T13:53:16;9.30;;;1.67;;
4278;SDS011;2153;47.744;10.580;2024-01-15T13:55:44;10.10;;;2.20;;
4278;SDS011;2153;47.744;10.580;2024-01-15T13:58:10;10.37;;;1.80;;
4278;SDS011;2153;47.744;10.580;2024-01-15T14:00:37;10.53;;;2.13;;
4278;SDS011;2153;47.744;10.580;2024-01-15T14:03:06;10.30;;;2.20;;
4278;SDS011;2153;47.744;10.580;2024-01-15T14:05:33;9.53;;;1.93;;
4278;SDS011;2153;47.744;10.580;2024-01-15T14:07:59;9.37;;;1.80;;
4278;SDS011;2153;47.744;10.580;2024-01-15T14:10:26;10.27;;;2.60;;
4278;SDS011;2153;47.744;10.580;2024-01-15T14:12:53;9.93;;;2.30;;
4278;SDS011;2153;47.744;10.580;2024-01-15T14:15:19;13.50;;;3.07;;
4278;SDS011;2153;47.744;10.580;2024-01-15T14:17:47;10.60;;;2.30;;
4278;SDS011;2153;47.744;10.580;2024-01-15T14:20:15;11.43;;;2.37;;
4278;SDS011;2153;47.744;10.580;2024-01-15T14:22:42;11.20;;;2.33;;
4278;SDS011;2153;47.744;10.580;2024-01-15T14:25:09;10.23;;;2.50;;
4278;SDS011;2153;47.744;10.580;2024-01-15T14:27:36;11.00;;;2.63;;
4278;SDS011;2153;47.744;10.580;2024-01-15T14:30:03;11.07;;;2.60;;
4278;SDS011;2153;47.744;10.580;2024-01-15T14:32:33;10.63;;;2.47;;
4278;SDS011;2153;47.744;10.580;2024-01-15T14:35:00;11.47;;;2.37;;
4278;SDS011;2153;47.744;10.580;2024-01-15T14:37:29;12.47;;;3.03;;
4278;SDS011;2153;47.744;10.580;2024-01-15T14:39:56;13.60;;;2.77;;
4278;SDS011;2153;47.744;10.580;2024-01-15T14:42:23;10.83;;;2.50;;
4278;SDS011;2153;47.744;10.580;2024-01-15T14:44:50;10.47;;;2.87;;
4278;SDS011;2153;47.744;10.580;2024-01-15T14:47:17;10.47;;;2.90;;
4278;SDS011;2153;47.744;10.580;2024-01-15T14:49:44;11.93;;;2.70;;
4278;SDS011;2153;47.744;10.580;2024-01-15T14:52:11;10.93;;;2.33;;